createdAt,value
2019-04-14T00:08:17.754Z,58.20
2019-04-14T00:18:20.822Z,58.40
2019-04-14T00:28:22.889Z,58.40
2019-04-14T00:38:25.991Z,61.10
2019-04-14T00:48:28.021Z,59.10
2019-04-14T00:58:30.113Z,59.10
2019-04-14T01:08:32.090Z,58.90
2019-04-14T01:18:34.141Z,59.30
2019-04-14T01:28:36.146Z,59.40
2019-04-14T01:38:38.516Z,59.50
2019-04-14T01:48:41.052Z,59.50
2019-04-14T01:58:43.205Z,59.90
2019-04-14T02:08:45.886Z,59.90
2019-04-14T02:18:50.647Z,60.20
2019-04-14T02:28:52.833Z,60.50
2019-04-14T02:39:24.105Z,61.00
2019-04-14T02:49:44.069Z,63.00
2019-04-14T02:59:45.155Z,61.00
2019-04-14T03:09:42.221Z,60.70
2019-04-14T03:20:00.463Z,60.30
2019-04-14T03:30:11.685Z,61.00
2019-04-14T03:39:51.228Z,61.20
2019-04-14T03:50:00.948Z,61.80
2019-04-14T03:59:39.128Z,62.20
2019-04-14T04:09:41.323Z,62.00
2019-04-14T04:19:43.342Z,62.30
2019-04-14T04:29:46.277Z,62.20
2019-04-14T04:39:49.529Z,62.50
2019-04-14T04:49:53.414Z,61.60
2019-04-14T04:59:56.148Z,61.50
2019-04-14T05:09:59.920Z,61.40
2019-04-14T05:20:03.228Z,61.60
2019-04-14T05:30:04.782Z,61.30
2019-04-14T05:40:07.989Z,63.40
2019-04-14T05:50:10.196Z,60.90
2019-04-14T06:00:12.529Z,61.00
2019-04-14T06:10:14.459Z,59.90
2019-04-14T06:20:16.475Z,59.30
2019-04-14T06:30:18.443Z,58.80
2019-04-14T06:40:20.381Z,58.50
2019-04-14T06:50:22.338Z,57.90
2019-04-14T07:00:24.423Z,57.60
2019-04-14T07:10:26.431Z,56.90
2019-04-14T07:20:28.386Z,56.30
2019-04-14T07:30:30.342Z,55.40
2019-04-14T07:40:32.323Z,54.40
2019-04-14T07:50:34.434Z,54.10
2019-04-14T08:00:36.499Z,54.50
2019-04-14T08:10:38.486Z,55.00
2019-04-14T08:20:40.529Z,54.20
2019-04-14T08:30:42.570Z,53.90
2019-04-14T08:40:44.426Z,53.30
2019-04-14T08:50:46.391Z,52.80
2019-04-14T09:00:48.450Z,52.00
2019-04-14T09:10:50.543Z,51.30
2019-04-14T09:20:52.914Z,50.60
2019-04-14T09:30:54.963Z,50.20
2019-04-14T09:40:56.918Z,49.00
2019-04-14T09:51:04.580Z,48.10
2019-04-14T10:01:02.710Z,47.00
2019-04-14T10:11:04.659Z,45.10
2019-04-14T10:21:16.744Z,44.00
2019-04-14T10:31:10.448Z,43.10
2019-04-14T10:41:12.415Z,41.90
2019-04-14T10:51:14.399Z,40.90
2019-04-14T11:01:16.355Z,40.10
2019-04-14T11:11:18.391Z,39.00
2019-04-14T11:21:20.352Z,38.20
2019-04-14T11:31:22.394Z,37.60
2019-04-14T11:41:24.516Z,36.60
2019-04-14T11:51:26.802Z,35.60
2019-04-14T12:01:28.935Z,28.60
2019-04-14T12:11:31.722Z,22.20
2019-04-14T12:21:33.679Z,17.90
2019-04-14T12:31:37.378Z,14.50
2019-04-14T12:41:39.968Z,13.50
2019-04-14T12:51:42.032Z,10.40
2019-04-14T13:01:45.238Z,8.10
2019-04-14T13:11:47.237Z,6.90
2019-04-14T13:21:49.216Z,8.00
2019-04-14T13:31:51.357Z,9.90
2019-04-14T13:41:53.305Z,6.00
2019-04-14T13:51:55.265Z,6.30
2019-04-14T14:01:57.382Z,7.50
2019-04-14T14:11:59.450Z,8.50
2019-04-14T14:22:01.367Z,10.60
2019-04-14T14:32:03.819Z,14.90
2019-04-14T14:42:05.747Z,16.30
2019-04-14T14:52:07.186Z,16.80
2019-04-14T15:02:09.315Z,12.90
2019-04-14T15:12:11.356Z,15.60
2019-04-14T15:22:13.346Z,12.00
2019-04-14T15:32:15.347Z,10.30
2019-04-14T15:42:17.347Z,16.40
2019-04-14T15:52:19.387Z,18.70
2019-04-14T16:02:21.399Z,19.80
2019-04-14T16:12:23.619Z,21.10
2019-04-14T16:22:25.669Z,21.90
2019-04-14T16:32:27.803Z,22.90
2019-04-14T16:42:29.768Z,23.70
2019-04-14T16:52:31.765Z,24.70
2019-04-14T17:02:33.692Z,25.80
2019-04-14T17:12:35.688Z,26.70
2019-04-14T17:22:37.649Z,27.40
2019-04-14T17:32:39.688Z,27.60
2019-04-14T17:42:41.659Z,28.20
2019-04-14T17:52:43.686Z,28.70
2019-04-14T18:02:45.641Z,28.70
2019-04-14T18:12:47.692Z,29.90
2019-04-14T18:22:49.679Z,30.20
2019-04-14T18:32:51.690Z,31.10
2019-04-14T18:42:53.668Z,31.90
2019-04-14T18:52:55.631Z,32.80
2019-04-14T19:02:57.571Z,33.50
2019-04-14T19:12:59.627Z,34.10
2019-04-14T19:23:01.590Z,34.80
2019-04-14T19:33:03.868Z,35.20
2019-04-14T19:43:05.924Z,35.50
2019-04-14T19:53:07.922Z,36.50
2019-04-14T20:03:09.922Z,37.10
2019-04-14T20:13:12.044Z,37.20
2019-04-14T20:23:14.095Z,38.50
2019-04-14T20:33:16.274Z,39.00
2019-04-14T20:43:18.332Z,39.50
2019-04-14T20:53:20.310Z,39.80
2019-04-14T21:03:22.299Z,39.70
2019-04-14T21:13:24.429Z,40.70
2019-04-14T21:23:26.396Z,41.90
2019-04-14T21:33:28.445Z,42.00
2019-04-14T21:43:30.395Z,42.40
2019-04-14T21:53:32.359Z,43.30
2019-04-14T22:03:35.010Z,43.80
2019-04-14T22:13:37.130Z,44.30
2019-04-14T22:23:39.346Z,45.00
2019-04-14T22:33:41.333Z,45.30
2019-04-14T22:43:43.308Z,45.80
2019-04-14T22:53:45.403Z,45.90
2019-04-14T23:03:47.864Z,46.60
2019-04-14T23:13:49.885Z,47.40
2019-04-14T23:23:51.847Z,47.80
2019-04-14T23:33:53.900Z,47.70
2019-04-14T23:43:55.879Z,48.10
2019-04-14T23:53:58.043Z,48.40
